Terminal Aerodrome Forecast
Issued by NWS

Home | Current Version | Previous Version | Graphics & Text | Print | Product List | Glossary On
Versions: 1 2 3 4 5 6 7 8 9 10 11 12 13 14 15 16
000
FTUS43 KGRB 272332
TAFAUW
TAF
KAUW 272332Z 2800/2824 VRB03KT 2SM +TSRA BR BKN020CB OVC090
      TEMPO 2800/2803 P6SM -SHRA SCT020 BKN090
     FM280300 06006KT P6SM VCSH SCT020 OVC040
     FM280700 07005KT 5SM BR SCT008 OVC015
      TEMPO 2808/2812 2SM -SHRA BR BKN008
     FM281400 06005KT P6SM VCSH BKN030
     FM281800 06006KT P6SM SCT045 BKN120=

USA.gov is the U.S. government's official web portal to all federal, state and local government web resources and services.